sensor_id;sensor_type;location;lat;lon;timestamp;pressure;altitude;pressure_sealevel;temperature;humidity
23176;BME280;19910;42.652;23.332;2023-04-20T00:02:00;94255.78;;;10.07;71.27
23176;BME280;19910;42.652;23.332;2023-04-20T00:04:28;94256.72;;;10.11;71.21
23176;BME280;19910;42.652;23.332;2023-04-20T00:06:56;94244.03;;;10.03;70.92
23176;BME280;19910;42.652;23.332;2023-04-20T00:09:25;94252.28;;;10.06;71.56
23176;BME280;19910;42.652;23.332;2023-04-20T00:11:52;94246.28;;;10.01;71.31
23176;BME280;19910;42.652;23.332;2023-04-20T00:14:19;94243.13;;;9.98;71.31
23176;BME280;19910;42.652;23.332;2023-04-20T00:16:46;94249.22;;;9.95;71.86
23176;BME280;19910;42.652;23.332;2023-04-20T00:19:13;94238.41;;;9.95;71.77
23176;BME280;19910;42.652;23.332;2023-04-20T00:21:40;94236.91;;;9.98;71.73
23176;BME280;19910;42.652;23.332;2023-04-20T00:24:08;94230.47;;;9.90;72.00
23176;BME280;19910;42.652;23.332;2023-04-20T00:26:35;94231.13;;;9.87;72.05
23176;BME280;19910;42.652;23.332;2023-04-20T00:29:02;94234.97;;;9.86;72.49
23176;BME280;19910;42.652;23.332;2023-04-20T00:31:29;94238.69;;;9.82;72.80
23176;BME280;19910;42.652;23.332;2023-04-20T00:33:56;94237.88;;;9.81;72.91
23176;BME280;19910;42.652;23.332;2023-04-20T00:36:23;94226.16;;;9.77;73.00
23176;BME280;19910;42.652;23.332;2023-04-20T00:38:51;94225.22;;;9.73;73.10
23176;BME280;19910;42.652;23.332;2023-04-20T00:41:20;94228.84;;;9.77;72.52
23176;BME280;19910;42.652;23.332;2023-04-20T00:43:50;94230.25;;;9.83;72.47
23176;BME280;19910;42.652;23.332;2023-04-20T00:46:17;94228.66;;;9.82;72.76
23176;BME280;19910;42.652;23.332;2023-04-20T00:48:44;94227.06;;;9.81;72.94
23176;BME280;19910;42.652;23.332;2023-04-20T00:51:11;94225.50;;;9.80;73.02
23176;BME280;19910;42.652;23.332;2023-04-20T00:53:39;94229.31;;;9.79;73.24
23176;BME280;19910;42.652;23.332;2023-04-20T00:56:06;94223.91;;;9.79;73.55
23176;BME280;19910;42.652;23.332;2023-04-20T00:58:35;94231.41;;;9.74;73.91
23176;BME280;19910;42.652;23.332;2023-04-20T01:01:02;94228.00;;;9.65;74.58
23176;BME280;19910;42.652;23.332;2023-04-20T01:03:30;94235.50;;;9.59;75.02
23176;BME280;19910;42.652;23.332;2023-04-20T01:05:57;94235.28;;;9.52;75.45
23176;BME280;19910;42.652;23.332;2023-04-20T01:08:25;94231.16;;;9.46;75.64
23176;BME280;19910;42.652;23.332;2023-04-20T01:10:53;94228.69;;;9.41;76.22
23176;BME280;19910;42.652;23.332;2023-04-20T01:13:20;94231.56;;;9.36;76.35
23176;BME280;19910;42.652;23.332;2023-04-20T01:15:49;94231.31;;;9.29;76.95
23176;BME280;19910;42.652;23.332;2023-04-20T01:18:16;94227.22;;;9.22;77.27
23176;BME280;19910;42.652;23.332;2023-04-20T01:20:44;94231.81;;;9.22;77.65
23176;BME280;19910;42.652;23.332;2023-04-20T01:23:12;94230.09;;;9.17;77.79
23176;BME280;19910;42.652;23.332;2023-04-20T01:25:40;94233.25;;;9.19;77.46
23176;BME280;19910;42.652;23.332;2023-04-20T01:28:07;94233.91;;;9.16;78.19
23176;BME280;19910;42.652;23.332;2023-04-20T01:30:36;94229.19;;;9.13;78.44
23176;BME280;19910;42.652;23.332;2023-04-20T01:33:03;94229.97;;;9.14;78.70
23176;BME280;19910;42.652;23.332;2023-04-20T01:35:29;94233.47;;;9.14;78.50
23176;BME280;19910;42.652;23.332;2023-04-20T01:37:56;94232.22;;;9.12;78.63
23176;BME280;19910;42.652;23.332;2023-04-20T01:40:24;94229.97;;;9.14;78.66
23176;BME280;19910;42.652;23.332;2023-04-20T01:42:51;94232.53;;;9.10;78.81
23176;BME280;19910;42.652;23.332;2023-04-20T01:45:18;94229.38;;;9.08;78.88
23176;BME280;19910;42.652;23.332;2023-04-20T01:47:45;94218.75;;;9.03;78.76
23176;BME280;19910;42.652;23.332;2023-04-20T01:50:11;94224.44;;;9.10;79.58
23176;BME280;19910;42.652;23.332;2023-04-20T01:52:38;94220.63;;;9.11;79.23
23176;BME280;19910;42.652;23.332;2023-04-20T01:55:06;94216.00;;;9.12;79.03
23176;BME280;19910;42.652;23.332;2023-04-20T01:57:34;94220.47;;;9.08;79.15
23176;BME280;19910;42.652;23.332;2023-04-20T02:00:02;94213.97;;;9.09;79.20
23176;BME280;19910;42.652;23.332;2023-04-20T02:02:29;94215.72;;;9.05;79.36
23176;BME280;19910;42.652;23.332;2023-04-20T02:04:56;94212.44;;;8.99;79.61
23176;BME280;19910;42.652;23.332;2023-04-20T02:07:23;94207.53;;;8.93;80.03
23176;BME280;19910;42.652;23.332;2023-04-20T02:09:50;94217.06;;;8.90;80.14
23176;BME280;19910;42.652;23.332;2023-04-20T02:12:16;94207.59;;;8.84;80.46
23176;BME280;19910;42.652;23.332;2023-04-20T02:14:45;94207.38;;;8.89;80.39
23176;BME280;19910;42.652;23.332;2023-04-20T02:17:12;94207.69;;;8.96;79.15
23176;BME280;19910;42.652;23.332;2023-04-20T02:19:39;94208.78;;;8.95;79.65
23176;BME280;19910;42.652;23.332;2023-04-20T02:22:06;94207.69;;;8.96;79.40
23176;BME280;19910;42.652;23.332;2023-04-20T02:24:33;94207.81;;;9.00;79.36
23176;BME280;19910;42.652;23.332;2023-04-20T02:26:59;94207.50;;;9.01;79.44
23176;BME280;19910;42.652;23.332;2023-04-20T02:29:26;94215.59;;;9.01;79.16
23176;BME280;19910;42.652;23.332;2023-04-20T02:31:55;94202.53;;;9.03;78.79
23176;BME280;19910;42.652;23.332;2023-04-20T02:34:22;94208.88;;;9.07;78.46
23176;BME280;19910;42.652;23.332;2023-04-20T02:36:49;94205.53;;;9.10;78.31
23176;BME280;19910;42.652;23.332;2023-04-20T02:39:15;94206.78;;;9.13;78.64
23176;BME280;19910;42.652;23.332;2023-04-20T02:41:42;94210.06;;;9.18;77.80
23176;BME280;19910;42.652;23.332;2023-04-20T02:44:09;94206.91;;;9.16;77.98
23176;BME280;19910;42.652;23.332;2023-04-20T02:46:36;94208.75;;;9.24;77.16
23176;BME280;19910;42.652;23.332;2023-04-20T02:49:04;94211.25;;;9.30;76.11
23176;BME280;19910;42.652;23.332;2023-04-20T02:51:31;94209.41;;;9.21;76.89
23176;BME280;19910;42.652;23.332;2023-04-20T02:53:58;94215.78;;;9.17;77.28
23176;BME280;19910;42.652;23.332;2023-04-20T02:56:25;94217.13;;;9.11;77.96
23176;BME280;19910;42.652;23.332;2023-04-20T02:58:52;94207.16;;;9.03;79.25
23176;BME280;19910;42.652;23.332;2023-04-20T03:01:18;94215.31;;;8.94;80.05
23176;BME280;19910;42.652;23.332;2023-04-20T03:03:45;94209.75;;;8.90;79.97
23176;BME280;19910;42.652;23.332;2023-04-20T03:06:13;94214.66;;;8.97;80.13
23176;BME280;19910;42.652;23.332;2023-04-20T03:08:40;94204.50;;;8.94;79.82
23176;BME280;19910;42.652;23.332;2023-04-20T03:11:07;94217.22;;;8.94;79.27
23176;BME280;19910;42.652;23.332;2023-04-20T03:13:34;94210.56;;;8.91;79.40
23176;BME280;19910;42.652;23.332;2023-04-20T03:16:01;94205.47;;;8.89;79.10
23176;BME280;19910;42.652;23.332;2023-04-20T03:18:29;94200.88;;;8.90;79.51
23176;BME280;19910;42.652;23.332;2023-04-20T03:20:56;94203.56;;;8.90;78.97
23176;BME280;19910;42.652;23.332;2023-04-20T03:23:24;94209.91;;;8.94;79.32
23176;BME280;19910;42.652;23.332;2023-04-20T03:25:51;94205.44;;;8.98;79.05
23176;BME280;19910;42.652;23.332;2023-04-20T03:28:18;94211.97;;;8.97;78.68
23176;BME280;19910;42.652;23.332;2023-04-20T03:30:45;94200.69;;;8.95;79.14
23176;BME280;19910;42.652;23.332;2023-04-20T03:33:12;94209.91;;;8.94;79.13
23176;BME280;19910;42.652;23.332;2023-04-20T03:35:39;94214.19;;;8.95;79.21
23176;BME280;19910;42.652;23.332;2023-04-20T03:38:07;94211.50;;;8.95;79.11
23176;BME280;19910;42.652;23.332;2023-04-20T03:40:35;94200.69;;;8.95;79.07
23176;BME280;19910;42.652;23.332;2023-04-20T03:43:02;94211.00;;;9.02;79.19
23176;BME280;19910;42.652;23.332;2023-04-20T03:45:29;94218.75;;;9.03;78.72
23176;BME280;19910;42.652;23.332;2023-04-20T03:47:56;94219.69;;;9.07;79.05
23176;BME280;19910;42.652;23.332;2023-04-20T03:50:22;94212.97;;;9.13;78.59
23176;BME280;19910;42.652;23.332;2023-04-20T03:52:49;94220.88;;;9.18;78.73
23176;BME280;19910;42.652;23.332;2023-04-20T03:55:16;94210.34;;;9.25;77.89
23176;BME280;19910;42.652;23.332;2023-04-20T03:57:44;94210.75;;;9.36;77.13
23176;BME280;19910;42.652;23.332;2023-04-20T04:00:12;94213.13;;;9.38;76.43
23176;BME280;19910;42.652;23.332;2023-04-20T04:02:39;94191.63;;;9.20;76.45
23176;BME280;19910;42.652;23.332;2023-04-20T04:05:06;94204.81;;;9.43;76.29
23176;BME280;19910;42.652;23.332;2023-04-20T04:07:33;94209.34;;;9.51;75.17
23176;BME280;19910;42.652;23.332;2023-04-20T04:10:00;94211.41;;;9.54;75.38
23176;BME280;19910;42.652;23.332;2023-04-20T04:12:29;94225.81;;;9.58;75.72
23176;BME280;19910;42.652;23.332;2023-04-20T04:14:57;94222.47;;;9.61;75.03
23176;BME280;19910;42.652;23.332;2023-04-20T04:17:24;94219.56;;;9.66;75.07
23176;BME280;19910;42.652;23.332;2023-04-20T04:19:51;94216.41;;;9.64;74.89
23176;BME280;19910;42.652;23.332;2023-04-20T04:22:21;94228.53;;;9.58;75.16
23176;BME280;19910;42.652;23.332;2023-04-20T04:24:48;94229.91;;;9.64;75.20
23176;BME280;19910;42.652;23.332;2023-04-20T04:27:16;94224.50;;;9.64;74.92
23176;BME280;19910;42.652;23.332;2023-04-20T04:29:43;94225.44;;;9.68;75.29
23176;BME280;19910;42.652;23.332;2023-04-20T04:32:11;94225.44;;;9.68;75.00
23176;BME280;19910;42.652;23.332;2023-04-20T04:34:39;94223.84;;;9.67;75.10
23176;BME280;19910;42.652;23.332;2023-04-20T04:37:08;94227.22;;;9.64;75.48
23176;BME280;19910;42.652;23.332;2023-04-20T04:39:37;94231.97;;;9.67;75.29
23176;BME280;19910;42.652;23.332;2023-04-20T04:42:04;94234.69;;;9.67;75.15
23176;BME280;19910;42.652;23.332;2023-04-20T04:44:31;94241.78;;;9.72;75.26
23176;BME280;19910;42.652;23.332;2023-04-20T04:46:58;94236.72;;;9.70;75.32
23176;BME280;19910;42.652;23.332;2023-04-20T04:49:26;94249.09;;;9.71;74.83
23176;BME280;19910;42.652;23.332;2023-04-20T04:51:55;94241.91;;;9.75;74.51
23176;BME280;19910;42.652;23.332;2023-04-20T04:54:21;94251.75;;;9.80;75.07
23176;BME280;19910;42.652;23.332;2023-04-20T04:56:48;94248.03;;;9.84;74.59
23176;BME280;19910;42.652;23.332;2023-04-20T04:59:16;94246.25;;;9.88;74.75
23176;BME280;19910;42.652;23.332;2023-04-20T05:01:42;94247.13;;;9.80;75.02
23176;BME280;19910;42.652;23.332;2023-04-20T05:04:12;94253.91;;;9.86;74.83
23176;BME280;19910;42.652;23.332;2023-04-20T05:06:40;94249.38;;;9.78;74.94
23176;BME280;19910;42.652;23.332;2023-04-20T05:09:06;94248.81;;;9.85;74.54
23176;BME280;19910;42.652;23.332;2023-04-20T05:11:33;94251.88;;;9.83;74.44
23176;BME280;19910;42.652;23.332;2023-04-20T05:14:00;94257.72;;;9.85;74.30
23176;BME280;19910;42.652;23.332;2023-04-20T05:16:27;94250.81;;;9.96;74.79
23176;BME280;19910;42.652;23.332;2023-04-20T05:18:54;94255.53;;;9.99;74.44
23176;BME280;19910;42.652;23.332;2023-04-20T05:21:21;94250.91;;;10.00;74.41
23176;BME280;19910;42.652;23.332;2023-04-20T05:23:49;94245.44;;;10.09;74.54
23176;BME280;19910;42.652;23.332;2023-04-20T05:26:16;94254.44;;;10.13;74.22
23176;BME280;19910;42.652;23.332;2023-04-20T05:28:43;94251.69;;;10.01;74.72
23176;BME280;19910;42.652;23.332;2023-04-20T05:31:10;94255.94;;;10.10;74.65
23176;BME280;19910;42.652;23.332;2023-04-20T05:33:36;94254.34;;;10.09;74.15
23176;BME280;19910;42.652;23.332;2023-04-20T05:36:07;94250.91;;;10.21;74.28
23176;BME280;19910;42.652;23.332;2023-04-20T05:38:34;94251.53;;;10.18;73.99
23176;BME280;19910;42.652;23.332;2023-04-20T05:41:02;94253.09;;;10.07;74.37
23176;BME280;19910;42.652;23.332;2023-04-20T05:43:29;94257.38;;;10.08;74.28
23176;BME280;19910;42.652;23.332;2023-04-20T05:45:56;94265.03;;;10.06;74.78
23176;BME280;19910;42.652;23.332;2023-04-20T05:48:22;94259.75;;;10.09;75.22
23176;BME280;19910;42.652;23.332;2023-04-20T05:50:51;94258.28;;;10.12;75.78
23176;BME280;19910;42.652;23.332;2023-04-20T05:53:18;94255.56;;;10.12;75.00
23176;BME280;19910;42.652;23.332;2023-04-20T05:55:46;94261.19;;;10.27;75.29
23176;BME280;19910;42.652;23.332;2023-04-20T05:58:14;94252.97;;;10.36;75.22
23176;BME280;19910;42.652;23.332;2023-04-20T06:00:41;94263.56;;;10.29;75.56
23176;BME280;19910;42.652;23.332;2023-04-20T06:03:08;94264.56;;;10.24;75.14
23176;BME280;19910;42.652;23.332;2023-04-20T06:05:35;94255.78;;;10.07;75.55
23176;BME280;19910;42.652;23.332;2023-04-20T06:08:02;94254.13;;;10.14;75.83
23176;BME280;19910;42.652;23.332;2023-04-20T06:10:29;94263.09;;;10.27;75.63
23176;BME280;19910;42.652;23.332;2023-04-20T06:12:58;94261.31;;;10.31;75.87
23176;BME280;19910;42.652;23.332;2023-04-20T06:15:27;94267.28;;;10.24;76.51
23176;BME280;19910;42.652;23.332;2023-04-20T06:17:53;94265.25;;;10.21;76.90
23176;BME280;19910;42.652;23.332;2023-04-20T06:20:20;94269.41;;;10.19;77.01
23176;BME280;19910;42.652;23.332;2023-04-20T06:22:48;94258.97;;;10.09;77.46
23176;BME280;19910;42.652;23.332;2023-04-20T06:25:15;94273.13;;;10.26;77.16
23176;BME280;19910;42.652;23.332;2023-04-20T06:27:42;94257.28;;;10.16;77.31
23176;BME280;19910;42.652;23.332;2023-04-20T06:30:09;94261.63;;;10.29;76.81
23176;BME280;19910;42.652;23.332;2023-04-20T06:32:38;94273.28;;;10.42;76.09
23176;BME280;19910;42.652;23.332;2023-04-20T06:35:05;94261.44;;;10.35;75.73
23176;BME280;19910;42.652;23.332;2023-04-20T06:37:34;94268.66;;;10.43;76.15
23176;BME280;19910;42.652;23.332;2023-04-20T06:40:01;94272.63;;;10.45;75.75
23176;BME280;19910;42.652;23.332;2023-04-20T06:42:30;94265.09;;;10.51;76.21
23176;BME280;19910;42.652;23.332;2023-04-20T06:44:56;94277.16;;;10.53;75.72
23176;BME280;19910;42.652;23.332;2023-04-20T06:47:23;94281.88;;;10.44;75.79
23176;BME280;19910;42.652;23.332;2023-04-20T06:49:57;94273.53;;;10.37;76.16
23176;BME280;19910;42.652;23.332;2023-04-20T06:52:23;94277.81;;;10.38;75.89
23176;BME280;19910;42.652;23.332;2023-04-20T06:54:50;94287.34;;;10.23;75.90
23176;BME280;19910;42.652;23.332;2023-04-20T06:57:17;94298.09;;;10.32;75.88
23176;BME280;19910;42.652;23.332;2023-04-20T06:59:44;94295.38;;;10.32;76.13
23176;BME280;19910;42.652;23.332;2023-04-20T07:02:11;94301.03;;;10.39;76.86
23176;BME280;19910;42.652;23.332;2023-04-20T07:04:38;94298.28;;;10.27;78.26
23176;BME280;19910;42.652;23.332;2023-04-20T07:07:06;94291.97;;;10.23;78.88
23176;BME280;19910;42.652;23.332;2023-04-20T07:09:33;94298.44;;;10.10;79.15
23176;BME280;19910;42.652;23.332;2023-04-20T07:11:59;94295.38;;;10.32;79.14
23176;BME280;19910;42.652;23.332;2023-04-20T07:14:27;94295.38;;;10.32;79.67
23176;BME280;19910;42.652;23.332;2023-04-20T07:16:55;94299.03;;;10.48;79.86
23176;BME280;19910;42.652;23.332;2023-04-20T07:19:22;94296.34;;;10.60;78.92
23176;BME280;19910;42.652;23.332;2023-04-20T07:21:49;94304.50;;;10.73;77.46
23176;BME280;19910;42.652;23.332;2023-04-20T07:24:17;94292.00;;;10.92;76.56
23176;BME280;19910;42.652;23.332;2023-04-20T07:26:43;94289.31;;;11.04;75.47
23176;BME280;19910;42.652;23.332;2023-04-20T07:29:10;94300.47;;;11.15;75.26
23176;BME280;19910;42.652;23.332;2023-04-20T07:31:37;94300.94;;;11.29;74.51
23176;BME280;19910;42.652;23.332;2023-04-20T07:34:04;94294.03;;;11.32;73.22
23176;BME280;19910;42.652;23.332;2023-04-20T07:36:32;94290.53;;;11.44;72.30
23176;BME280;19910;42.652;23.332;2023-04-20T07:38:59;94291.44;;;11.48;72.08
23176;BME280;19910;42.652;23.332;2023-04-20T07:41:27;94295.91;;;11.68;71.34
23176;BME280;19910;42.652;23.332;2023-04-20T07:43:54;94289.56;;;11.88;70.63
23176;BME280;19910;42.652;23.332;2023-04-20T07:46:21;94291.34;;;11.96;69.46
23176;BME280;19910;42.652;23.332;2023-04-20T07:48:48;94290.84;;;12.06;69.16
23176;BME280;19910;42.652;23.332;2023-04-20T07:51:15;94292.25;;;12.28;68.54
23176;BME280;19910;42.652;23.332;2023-04-20T07:53:42;94285.53;;;12.38;67.46
23176;BME280;19910;42.652;23.332;2023-04-20T07:56:09;94283.66;;;12.70;66.74
23176;BME280;19910;42.652;23.332;2023-04-20T07:58:37;94277.16;;;12.74;66.43
23176;BME280;19910;42.652;23.332;2023-04-20T08:01:05;94282.63;;;13.06;66.39
23176;BME280;19910;42.652;23.332;2023-04-20T08:03:32;94280.16;;;13.32;65.43
23176;BME280;19910;42.652;23.332;2023-04-20T08:05:59;94277.84;;;13.85;63.17
23176;BME280;19910;42.652;23.332;2023-04-20T08:08:26;94272.28;;;13.78;63.05
23176;BME280;19910;42.652;23.332;2023-04-20T08:10:55;94281.75;;;13.18;64.41
23176;BME280;19910;42.652;23.332;2023-04-20T08:13:22;94289.97;;;12.90;65.07
23176;BME280;19910;42.652;23.332;2023-04-20T08:15:50;94271.97;;;13.83;63.42
23176;BME280;19910;42.652;23.332;2023-04-20T08:18:17;94287.50;;;14.17;62.18
23176;BME280;19910;42.652;23.332;2023-04-20T08:20:43;94270.44;;;14.40;61.66
23176;BME280;19910;42.652;23.332;2023-04-20T08:23:11;94273.25;;;14.43;61.51
23176;BME280;19910;42.652;23.332;2023-04-20T08:25:38;94270.84;;;14.61;61.48
23176;BME280;19910;42.652;23.332;2023-04-20T08:28:05;94275.28;;;14.31;61.87
23176;BME280;19910;42.652;23.332;2023-04-20T08:30:32;94275.94;;;13.50;63.04
23176;BME280;19910;42.652;23.332;2023-04-20T08:33:00;94278.66;;;13.03;64.04
23176;BME280;19910;42.652;23.332;2023-04-20T08:35:27;94279.44;;;12.72;66.33
23176;BME280;19910;42.652;23.332;2023-04-20T08:37:54;94279.66;;;13.11;65.56
23176;BME280;19910;42.652;23.332;2023-04-20T08:40:21;94281.66;;;13.30;64.96
23176;BME280;19910;42.652;23.332;2023-04-20T08:42:48;94283.94;;;13.43;64.63
23176;BME280;19910;42.652;23.332;2023-04-20T08:45:15;94280.25;;;13.36;63.08
23176;BME280;19910;42.652;23.332;2023-04-20T08:47:42;94283.88;;;13.24;64.20
23176;BME280;19910;42.652;23.332;2023-04-20T08:50:12;94285.97;;;13.15;64.84
23176;BME280;19910;42.652;23.332;2023-04-20T08:52:39;94283.31;;;13.03;64.52
23176;BME280;19910;42.652;23.332;2023-04-20T08:55:06;94284.19;;;13.07;65.47
23176;BME280;19910;42.652;23.332;2023-04-20T08:57:33;94284.91;;;13.04;65.82
23176;BME280;19910;42.652;23.332;2023-04-20T09:00:03;94282.22;;;13.20;64.53
23176;BME280;19910;42.652;23.332;2023-04-20T09:02:33;94290.66;;;12.87;65.70
23176;BME280;19910;42.652;23.332;2023-04-20T09:05:00;94300.56;;;12.63;66.62
23176;BME280;19910;42.652;23.332;2023-04-20T09:07:35;94293.09;;;12.60;67.78
23176;BME280;19910;42.652;23.332;2023-04-20T09:10:02;94293.41;;;12.71;66.63
23176;BME280;19910;42.652;23.332;2023-04-20T09:12:39;94306.03;;;12.79;66.76
23176;BME280;19910;42.652;23.332;2023-04-20T09:15:07;94301.53;;;12.87;65.83
23176;BME280;19910;42.652;23.332;2023-04-20T09:17:36;94291.66;;;13.10;65.55
23176;BME280;19910;42.652;23.332;2023-04-20T09:20:06;94295.00;;;13.50;64.79
23176;BME280;19910;42.652;23.332;2023-04-20T09:22:36;94292.16;;;14.17;63.13
23176;BME280;19910;42.652;23.332;2023-04-20T09:25:12;94293.22;;;14.32;62.62
23176;BME280;19910;42.652;23.332;2023-04-20T09:27:39;94276.13;;;13.96;62.72
23176;BME280;19910;42.652;23.332;2023-04-20T09:30:06;94276.31;;;14.42;61.90
23176;BME280;19910;42.652;23.332;2023-04-20T09:32:34;94275.25;;;14.88;61.18
23176;BME280;19910;42.652;23.332;2023-04-20T09:35:00;94265.56;;;15.17;59.61
23176;BME280;19910;42.652;23.332;2023-04-20T09:37:27;94269.09;;;15.18;59.61
23176;BME280;19910;42.652;23.332;2023-04-20T09:39:59;94272.91;;;14.68;59.80
23176;BME280;19910;42.652;23.332;2023-04-20T09:42:27;94276.44;;;15.14;59.65
23176;BME280;19910;42.652;23.332;2023-04-20T09:44:54;94267.72;;;15.54;59.78
23176;BME280;19910;42.652;23.332;2023-04-20T09:47:22;94268.06;;;16.05;57.37
23176;BME280;19910;42.652;23.332;2023-04-20T09:49:51;94269.63;;;16.06;55.95
23176;BME280;19910;42.652;23.332;2023-04-20T09:52:18;94266.44;;;14.99;58.78
23176;BME280;19910;42.652;23.332;2023-04-20T09:54:45;94262.63;;;14.80;58.94
23176;BME280;19910;42.652;23.332;2023-04-20T09:57:14;94266.88;;;15.01;58.76
23176;BME280;19910;42.652;23.332;2023-04-20T09:59:44;94259.03;;;15.48;58.11
23176;BME280;19910;42.652;23.332;2023-04-20T10:02:12;94246.19;;;16.05;56.14
23176;BME280;19910;42.652;23.332;2023-04-20T10:04:52;94258.28;;;16.34;56.55
23176;BME280;19910;42.652;23.332;2023-04-20T10:07:23;94221.25;;;16.07;56.28
23176;BME280;19910;42.652;23.332;2023-04-20T10:10:02;94249.75;;;16.43;56.53
23176;BME280;19910;42.652;23.332;2023-04-20T10:12:33;94250.75;;;15.94;56.60
23176;BME280;19910;42.652;23.332;2023-04-20T10:15:01;94245.09;;;15.80;57.05
23176;BME280;19910;42.652;23.332;2023-04-20T10:17:29;94248.44;;;15.96;56.10
23176;BME280;19910;42.652;23.332;2023-04-20T10:19:56;94249.81;;;15.83;57.48
23176;BME280;19910;42.652;23.332;2023-04-20T10:22:28;94245.19;;;15.60;57.54
23176;BME280;19910;42.652;23.332;2023-04-20T10:24:58;94251.03;;;15.10;58.53
23176;BME280;19910;42.652;23.332;2023-04-20T10:27:25;94240.47;;;15.84;57.23
23176;BME280;19910;42.652;23.332;2023-04-20T10:29:54;94233.28;;;16.02;56.01
23176;BME280;19910;42.652;23.332;2023-04-20T10:32:22;94236.91;;;15.53;57.12
23176;BME280;19910;42.652;23.332;2023-04-20T10:35:00;94228.28;;;15.51;57.66
23176;BME280;19910;42.652;23.332;2023-04-20T10:37:30;94235.41;;;15.56;56.93
23176;BME280;19910;42.652;23.332;2023-04-20T10:40:01;94234.72;;;15.62;57.25
23176;BME280;19910;42.652;23.332;2023-04-20T10:42:28;94234.53;;;16.08;56.61
23176;BME280;19910;42.652;23.332;2023-04-20T10:45:08;94227.44;;;16.04;56.70
23176;BME280;19910;42.652;23.332;2023-04-20T10:47:36;94223.00;;;16.59;56.23
23176;BME280;19910;42.652;23.332;2023-04-20T10:50:06;94227.53;;;16.81;53.93
23176;BME280;19910;42.652;23.332;2023-04-20T10:52:34;94221.44;;;16.98;53.61
23176;BME280;19910;42.652;23.332;2023-04-20T10:55:02;94199.72;;;16.72;53.23
23176;BME280;19910;42.652;23.332;2023-04-20T10:57:29;94208.66;;;16.69;54.20
23176;BME280;19910;42.652;23.332;2023-04-20T10:59:56;94213.78;;;16.74;54.92
23176;BME280;19910;42.652;23.332;2023-04-20T11:02:24;94218.41;;;17.11;53.63
23176;BME280;19910;42.652;23.332;2023-04-20T11:04:52;94210.59;;;16.31;53.78
23176;BME280;19910;42.652;23.332;2023-04-20T11:07:25;94224.81;;;15.81;55.27
23176;BME280;19910;42.652;23.332;2023-04-20T11:09:53;94227.06;;;16.05;54.75
23176;BME280;19910;42.652;23.332;2023-04-20T11:12:22;94218.31;;;16.22;54.81
23176;BME280;19910;42.652;23.332;2023-04-20T11:14:50;94223.00;;;16.59;54.39
23176;BME280;19910;42.652;23.332;2023-04-20T11:17:18;94191.00;;;17.03;53.40
23176;BME280;19910;42.652;23.332;2023-04-20T11:19:48;94201.56;;;17.09;54.17
23176;BME280;19910;42.652;23.332;2023-04-20T11:22:22;94188.75;;;17.71;51.57
23176;BME280;19910;42.652;23.332;2023-04-20T11:24:49;94195.25;;;17.52;51.58
23176;BME280;19910;42.652;23.332;2023-04-20T11:27:19;94201.19;;;17.10;51.88
23176;BME280;19910;42.652;23.332;2023-04-20T11:29:55;94217.13;;;16.97;52.99
23176;BME280;19910;42.652;23.332;2023-04-20T11:32:24;94209.03;;;16.30;54.18
23176;BME280;19910;42.652;23.332;2023-04-20T11:35:02;94212.38;;;16.54;54.81
23176;BME280;19910;42.652;23.332;2023-04-20T11:37:32;94194.16;;;17.05;51.74
23176;BME280;19910;42.652;23.332;2023-04-20T11:39:59;94200.44;;;16.65;52.17
23176;BME280;19910;42.652;23.332;2023-04-20T11:42:26;94202.53;;;16.79;52.35
23176;BME280;19910;42.652;23.332;2023-04-20T11:44:53;94192.38;;;17.31;51.28
23176;BME280;19910;42.652;23.332;2023-04-20T11:47:20;94186.81;;;17.79;50.46
23176;BME280;19910;42.652;23.332;2023-04-20T11:49:47;94189.22;;;17.29;51.13
23176;BME280;19910;42.652;23.332;2023-04-20T11:52:15;94189.72;;;17.45;50.84
23176;BME280;19910;42.652;23.332;2023-04-20T11:54:42;94189.56;;;17.24;51.14
23176;BME280;19910;42.652;23.332;2023-04-20T11:57:09;94190.38;;;17.28;52.06
23176;BME280;19910;42.652;23.332;2023-04-20T11:59:36;94190.44;;;17.35;51.63
23176;BME280;19910;42.652;23.332;2023-04-20T12:02:03;94179.72;;;16.68;51.55
23176;BME280;19910;42.652;23.332;2023-04-20T12:04:30;94192.84;;;16.52;52.55
23176;BME280;19910;42.652;23.332;2023-04-20T12:06:57;94191.19;;;16.44;52.20
23176;BME280;19910;42.652;23.332;2023-04-20T12:09:26;94189.63;;;16.43;53.04
23176;BME280;19910;42.652;23.332;2023-04-20T12:11:53;94187.28;;;16.78;51.39
23176;BME280;19910;42.652;23.332;2023-04-20T12:14:19;94194.97;;;16.69;51.08
23176;BME280;19910;42.652;23.332;2023-04-20T12:16:47;94193.50;;;16.42;51.11
23176;BME280;19910;42.652;23.332;2023-04-20T12:19:14;94189.06;;;15.93;53.41
23176;BME280;19910;42.652;23.332;2023-04-20T12:21:41;94203.94;;;15.39;55.46
23176;BME280;19910;42.652;23.332;2023-04-20T12:24:08;94198.50;;;14.90;57.57
23176;BME280;19910;42.652;23.332;2023-04-20T12:26:37;94206.81;;;14.32;59.36
23176;BME280;19910;42.652;23.332;2023-04-20T12:29:04;94198.75;;;13.97;61.88
23176;BME280;19910;42.652;23.332;2023-04-20T12:31:33;94199.75;;;13.70;63.43
23176;BME280;19910;42.652;23.332;2023-04-20T12:34:01;94203.19;;;13.67;64.38
23176;BME280;19910;42.652;23.332;2023-04-20T12:36:28;94203.91;;;13.64;63.82
23176;BME280;19910;42.652;23.332;2023-04-20T12:38:57;94201.94;;;13.80;63.35
23176;BME280;19910;42.652;23.332;2023-04-20T12:41:28;94183.56;;;13.96;63.20
23176;BME280;19910;42.652;23.332;2023-04-20T12:43:56;94188.44;;;14.06;62.24
23176;BME280;19910;42.652;23.332;2023-04-20T12:46:23;94186.97;;;14.12;60.93
23176;BME280;19910;42.652;23.332;2023-04-20T12:48:50;94178.78;;;14.32;60.67
23176;BME280;19910;42.652;23.332;2023-04-20T12:51:16;94165.19;;;14.54;59.06
23176;BME280;19910;42.652;23.332;2023-04-20T12:53:43;94180.41;;;15.31;57.70
23176;BME280;19910;42.652;23.332;2023-04-20T12:56:10;94186.28;;;15.59;57.70
23176;BME280;19910;42.652;23.332;2023-04-20T12:58:37;94171.38;;;16.17;55.95